Time;durP1;ratioP1;P1;durP2;ratioP2;P2;SDS_P1;SDS_P2;PMS_P1;PMS_P2;Temp;Humidity;BMP_temperature;BMP_pressure;BME280_temperature;BME280_humidity;BME280_pressure;Samples;Min_cycle;Max_cycle;Signal;HPM_P1;HPM_P2
2022/09/19 00:01:52;;;;;;;2.63;1.40;;;;;;;;;;5013951;28;20107;-79
2022/09/19 00:04:24;;;;;;;1.35;1.33;;;;;;;;;;5047218;28;20123;-79
2022/09/19 00:06:53;;;;;;;8.15;1.90;;;;;;;;;;5045439;28;20045;-79
2022/09/19 00:09:21;;;;;;;10.80;3.00;;;;;;;;;;5047235;28;20509;-79
2022/09/19 00:11:50;;;;;;;3.78;2.10;;;;;;;;;;5047072;28;20040;-80
2022/09/19 00:14:18;;;;;;;2.13;2.00;;;;;;;;;;5030506;28;20051;-79
2022/09/19 00:16:46;;;;;;;1.80;1.30;;;;;;;;;;5037422;28;20045;-79
2022/09/19 00:19:15;;;;;;;1.98;1.50;;;;;;;;;;5047021;28;20700;-78
2022/09/19 00:21:43;;;;;;;3.63;2.08;;;;;;;;;;5042228;28;20534;-79
2022/09/19 00:24:45;;;;;;;1.58;1.27;;;;;;;;;;5040429;28;20768;-79
2022/09/19 00:27:06;;;;;;;2.10;1.10;;;;;;;;;;5039008;28;20047;-78
2022/09/19 00:29:34;;;;;;;1.83;1.55;;;;;;;;;;5027715;28;20550;-79
2022/09/19 00:32:02;;;;;;;2.50;1.38;;;;;;;;;;5041536;28;20045;-79
2022/09/19 00:34:30;;;;;;;1.05;1.05;;;;;;;;;;5027179;28;20047;-79
2022/09/19 00:36:57;;;;;;;1.40;0.93;;;;;;;;;;5024437;28;20049;-79
2022/09/19 00:39:25;;;;;;;1.23;1.23;;;;;;;;;;5008021;28;20134;-79
2022/09/19 00:41:53;;;;;;;1.40;1.30;;;;;;;;;;5010377;28;20136;-79
2022/09/19 00:44:24;;;;;;;0.80;0.73;;;;;;;;;;5010920;28;20045;-79
2022/09/19 00:46:55;;;;;;;0.82;0.82;;;;;;;;;;5013155;28;20055;-79
2022/09/19 00:49:24;;;;;;;1.35;0.90;;;;;;;;;;5029226;28;20056;-79
2022/09/19 00:51:55;;;;;;;0.93;0.55;;;;;;;;;;5031241;28;20062;-79
2022/09/19 00:54:24;;;;;;;0.93;0.68;;;;;;;;;;5045424;28;20049;-79
2022/09/19 00:56:52;;;;;;;1.35;0.63;;;;;;;;;;5034898;28;20484;-80
2022/09/19 00:59:22;;;;;;;0.55;0.47;;;;;;;;;;5037085;28;20103;-79
2022/09/19 01:01:51;;;;;;;0.93;0.60;;;;;;;;;;5034693;28;20041;-79
2022/09/19 01:04:19;;;;;;;0.68;0.60;;;;;;;;;;5035720;28;20618;-79
2022/09/19 01:07:03;;;;;;;0.30;0.30;;;;;;;;;;5045972;28;20052;-80
2022/09/19 01:09:37;;;;;;;1.00;0.50;;;;;;;;;;5046346;28;20510;-78
2022/09/19 01:12:07;;;;;;;0.70;0.70;;;;;;;;;;5034736;28;20061;-78
2022/09/19 01:14:39;;;;;;;2.38;0.30;;;;;;;;;;5039292;28;20045;-79
2022/09/19 01:17:06;;;;;;;;;;;;;;;;;;5028711;28;20037;-78
2022/09/19 01:19:51;;;;;;;0.50;0.50;;;;;;;;;;5042894;28;19928;-78
2022/09/19 01:22:24;;;;;;;0.40;0.40;;;;;;;;;;5032004;28;20071;-79
2022/09/19 01:25:01;;;;;;;0.60;0.60;;;;;;;;;;5013353;28;20582;-79
2022/09/19 01:27:32;;;;;;;0.82;0.60;;;;;;;;;;5034381;28;20047;-78
2022/09/19 01:30:09;;;;;;;1.08;1.08;;;;;;;;;;5019284;28;20076;-79
2022/09/19 01:32:59;;;;;;;0.40;0.40;;;;;;;;;;5026327;28;20629;-79
2022/09/19 01:35:37;;;;;;;0.63;0.63;;;;;;;;;;5018441;28;20037;-79
2022/09/19 01:38:10;;;;;;;0.52;0.47;;;;;;;;;;5027567;28;20045;-78
2022/09/19 01:40:38;;;;;;;0.47;0.40;;;;;;;;;;5024524;28;20072;-78
2022/09/19 01:43:13;;;;;;;0.50;0.50;;;;;;;;;;5040229;28;20137;-79
2022/09/19 01:45:41;;;;;;;1.10;1.00;;;;;;;;;;5028169;28;20053;-78
2022/09/19 01:48:09;;;;;;;0.40;0.40;;;;;;;;;;5030693;28;20413;-79
2022/09/19 01:50:46;;;;;;;2.58;0.52;;;;;;;;;;5050541;28;20131;-79
2022/09/19 01:53:31;;;;;;;3.22;0.70;;;;;;;;;;5046554;28;20041;-78
2022/09/19 01:56:39;;;;;;;2.22;2.05;;;;;;;;;;5029378;28;20052;-78
2022/09/19 01:59:16;;;;;;;0.95;0.70;;;;;;;;;;5033848;28;20041;-79
2022/09/19 02:01:50;;;;;;;0.43;0.43;;;;;;;;;;5049540;28;20044;-79
2022/09/19 02:04:25;;;;;;;0.70;0.70;;;;;;;;;;5047346;28;20040;-78
2022/09/19 02:06:56;;;;;;;0.50;0.50;;;;;;;;;;5050463;22;20304;-74
2022/09/19 02:09:43;;;;;;;0.57;0.57;;;;;;;;;;5000212;28;20127;-76
2022/09/19 02:12:12;;;;;;;0.40;0.40;;;;;;;;;;5015792;28;20095;-75
2022/09/19 02:14:41;;;;;;;0.55;0.55;;;;;;;;;;5026493;28;20045;-77
2022/09/19 02:17:12;;;;;;;0.50;0.50;;;;;;;;;;5041591;28;20124;-75
2022/09/19 02:19:55;;;;;;;0.50;0.50;;;;;;;;;;5033764;28;20041;-73
2022/09/19 02:22:22;;;;;;;0.50;0.50;;;;;;;;;;5027419;28;20095;-77
2022/09/19 02:24:52;;;;;;;0.57;0.57;;;;;;;;;;5027179;28;20111;-77
2022/09/19 02:27:23;;;;;;;0.80;0.80;;;;;;;;;;5026151;28;20103;-78
2022/09/19 02:29:54;;;;;;;3.53;0.65;;;;;;;;;;5007901;28;20479;-78
2022/09/19 02:32:23;;;;;;;1.20;1.10;;;;;;;;;;5018051;28;20111;-77
2022/09/19 02:34:52;;;;;;;0.90;0.85;;;;;;;;;;4988785;28;20413;-77
2022/09/19 02:37:25;;;;;;;1.00;0.90;;;;;;;;;;5022337;28;20043;-76
2022/09/19 02:40:26;;;;;;;0.45;0.45;;;;;;;;;;5020911;28;20049;-77
2022/09/19 02:43:08;;;;;;;2.45;0.75;;;;;;;;;;4985661;28;20060;-77
2022/09/19 02:45:43;;;;;;;0.80;0.80;;;;;;;;;;5026205;28;20042;-76
2022/09/19 02:48:10;;;;;;;0.52;0.52;;;;;;;;;;5025289;28;20100;-78
2022/09/19 02:50:39;;;;;;;2.25;1.30;;;;;;;;;;5011778;28;20133;-77
2022/09/19 02:53:13;;;;;;;1.65;0.90;;;;;;;;;;5027667;28;20439;-77
2022/09/19 02:55:46;;;;;;;0.73;0.60;;;;;;;;;;5010984;28;20056;-76
2022/09/19 02:58:15;;;;;;;1.15;1.15;;;;;;;;;;5009630;28;20040;-76
2022/09/19 03:00:52;;;;;;;0.50;0.50;;;;;;;;;;5021972;28;20046;-73
2022/09/19 03:06:18;;;;;;;0.50;0.50;;;;;;;;;;5020277;28;20042;-76
2022/09/19 03:08:46;;;;;;;0.95;0.70;;;;;;;;;;5005069;28;20045;-76
2022/09/19 03:11:16;;;;;;;0.55;0.45;;;;;;;;;;5013511;28;20045;-77
2022/09/19 03:13:44;;;;;;;1.05;0.60;;;;;;;;;;5011409;28;20041;-77
2022/09/19 03:16:18;;;;;;;1.05;0.50;;;;;;;;;;5013496;28;20069;-75
2022/09/19 03:18:46;;;;;;;0.70;0.47;;;;;;;;;;5013242;28;20048;-77
2022/09/19 03:21:14;;;;;;;2.35;0.85;;;;;;;;;;5002930;28;20035;-77
2022/09/19 03:23:44;;;;;;;0.50;0.50;;;;;;;;;;4997087;28;20044;-76
2022/09/19 03:26:25;;;;;;;0.60;0.45;;;;;;;;;;4985152;28;20041;-76
2022/09/19 03:28:54;;;;;;;0.52;0.52;;;;;;;;;;5008026;28;20053;-76
2022/09/19 03:31:25;;;;;;;0.60;0.45;;;;;;;;;;5025094;28;20041;-76
2022/09/19 03:33:56;;;;;;;0.45;0.45;;;;;;;;;;5006602;28;20033;-76
2022/09/19 03:36:29;;;;;;;1.13;0.40;;;;;;;;;;5019841;28;20295;-73
2022/09/19 03:39:02;;;;;;;0.50;0.50;;;;;;;;;;5009056;28;20037;-75
2022/09/19 03:41:38;;;;;;;1.00;1.00;;;;;;;;;;5009528;28;20038;-75
2022/09/19 03:44:07;;;;;;;0.68;0.68;;;;;;;;;;5022379;28;20038;-76
2022/09/19 03:46:36;;;;;;;2.05;0.70;;;;;;;;;;5018410;28;20130;-76
2022/09/19 03:49:04;;;;;;;0.32;0.32;;;;;;;;;;5007721;28;20037;-76
2022/09/19 03:51:33;;;;;;;0.80;0.60;;;;;;;;;;5023253;28;20098;-76
2022/09/19 03:54:03;;;;;;;1.27;0.70;;;;;;;;;;5021863;28;20041;-77
2022/09/19 03:56:37;;;;;;;0.70;0.70;;;;;;;;;;5017191;28;20037;-77
2022/09/19 03:59:07;;;;;;;0.50;0.40;;;;;;;;;;5026355;28;20041;-77
2022/09/19 04:01:37;;;;;;;0.30;0.30;;;;;;;;;;5011073;28;20041;-75
2022/09/19 04:04:05;;;;;;;1.55;0.40;;;;;;;;;;5022370;28;20619;-76
2022/09/19 04:06:36;;;;;;;0.30;0.30;;;;;;;;;;5006256;28;20037;-76
2022/09/19 04:09:04;;;;;;;0.98;0.75;;;;;;;;;;5026100;28;20034;-74
2022/09/19 04:11:32;;;;;;;1.17;0.50;;;;;;;;;;5018736;28;20269;-76
2022/09/19 04:14:00;;;;;;;2.28;0.50;;;;;;;;;;5040009;28;20037;-76
2022/09/19 04:16:28;;;;;;;0.50;0.50;;;;;;;;;;5039844;28;20045;-76
2022/09/19 04:18:56;;;;;;;0.35;0.35;;;;;;;;;;5038397;28;20356;-74
2022/09/19 04:21:48;;;;;;;;;;;;;;;;;;5027001;28;20095;-76
2022/09/19 04:24:32;;;;;;;0.50;0.50;;;;;;;;;;5006741;28;19928;-75
2022/09/19 04:27:19;;;;;;;0.57;0.55;;;;;;;;;;5026832;28;20046;-75
2022/09/19 04:29:49;;;;;;;0.55;0.50;;;;;;;;;;4995953;28;20237;-76
2022/09/19 04:32:16;;;;;;;1.52;0.70;;;;;;;;;;5023119;28;20110;-76
2022/09/19 04:34:49;;;;;;;5.32;1.00;;;;;;;;;;5010742;28;20053;-76
2022/09/19 04:37:16;;;;;;;0.63;0.30;;;;;;;;;;5009050;28;20063;-76
2022/09/19 04:39:51;;;;;;;1.15;0.40;;;;;;;;;;5011303;28;20051;-76
2022/09/19 04:42:18;;;;;;;0.93;0.73;;;;;;;;;;5011965;28;20046;-75
2022/09/19 04:44:46;;;;;;;1.27;0.60;;;;;;;;;;5015722;28;20045;-76
2022/09/19 04:47:32;;;;;;;0.80;0.70;;;;;;;;;;5023334;28;20079;-76
2022/09/19 04:50:01;;;;;;;1.63;0.63;;;;;;;;;;5018196;28;20103;-77
2022/09/19 04:52:34;;;;;;;0.80;0.40;;;;;;;;;;5020658;28;20054;-76
2022/09/19 04:55:02;;;;;;;1.63;0.70;;;;;;;;;;5021958;28;20046;-75
2022/09/19 04:57:29;;;;;;;0.55;0.55;;;;;;;;;;5020982;28;20041;-77
2022/09/19 05:00:04;;;;;;;3.33;1.35;;;;;;;;;;5013288;28;20042;-75
2022/09/19 05:02:32;;;;;;;2.28;0.93;;;;;;;;;;5008377;28;20050;-75
2022/09/19 05:04:59;;;;;;;1.40;0.90;;;;;;;;;;5019605;28;20038;-76
2022/09/19 05:07:33;;;;;;;1.42;0.70;;;;;;;;;;5019429;28;20041;-76
2022/09/19 05:10:04;;;;;;;3.95;0.90;;;;;;;;;;5012912;28;20285;-75
2022/09/19 05:12:35;;;;;;;6.93;0.80;;;;;;;;;;5016201;28;20382;-75
2022/09/19 05:15:03;;;;;;;4.20;1.10;;;;;;;;;;5002246;28;20034;-75
2022/09/19 05:17:32;;;;;;;1.25;0.80;;;;;;;;;;5016719;28;20042;-75
2022/09/19 05:19:59;;;;;;;1.15;0.90;;;;;;;;;;5027724;28;20052;-75
2022/09/19 05:22:29;;;;;;;2.03;0.70;;;;;;;;;;5007473;28;20041;-74
2022/09/19 05:25:04;;;;;;;4.78;1.23;;;;;;;;;;4991383;28;20049;-73
2022/09/19 05:27:37;;;;;;;2.58;0.70;;;;;;;;;;5013454;28;20312;-75
2022/09/19 05:30:06;;;;;;;2.35;0.80;;;;;;;;;;5008026;28;20112;-73
2022/09/19 05:32:34;;;;;;;2.55;1.17;;;;;;;;;;5004323;28;20042;-75
2022/09/19 05:35:09;;;;;;;1.00;1.00;;;;;;;;;;5011068;28;20041;-75
2022/09/19 05:37:46;;;;;;;2.33;0.93;;;;;;;;;;5016582;28;20049;-76
2022/09/19 05:40:15;;;;;;;1.75;1.20;;;;;;;;;;5031808;28;20046;-75
2022/09/19 05:42:59;;;;;;;2.17;1.58;;;;;;;;;;5006624;28;20171;-76
2022/09/19 05:45:28;;;;;;;0.77;0.77;;;;;;;;;;5017295;28;20497;-75
2022/09/19 05:48:00;;;;;;;2.13;0.70;;;;;;;;;;4996125;28;20049;-76
2022/09/19 05:50:28;;;;;;;0.95;0.90;;;;;;;;;;4999808;28;20160;-75
2022/09/19 05:55:43;;;;;;;1.20;0.80;;;;;;;;;;5015284;28;20504;-77
2022/09/19 05:58:37;;;;;;;1.65;1.30;;;;;;;;;;5016346;28;20060;-74
2022/09/19 06:01:09;;;;;;;4.60;1.60;;;;;;;;;;4996742;28;20042;-74
2022/09/19 06:03:38;;;;;;;4.07;1.88;;;;;;;;;;5007107;28;20492;-75
2022/09/19 06:06:13;;;;;;;1.40;1.00;;;;;;;;;;4998699;28;20045;-74
2022/09/19 06:08:42;;;;;;;2.55;1.58;;;;;;;;;;5025352;28;20045;-75
2022/09/19 06:11:12;;;;;;;1.65;1.38;;;;;;;;;;5022238;28;20558;-75
2022/09/19 06:16:27;;;;;;;1.83;1.42;;;;;;;;;;5012778;28;20088;-76
2022/09/19 06:19:13;;;;;;;2.08;1.85;;;;;;;;;;5019234;28;20122;-76
2022/09/19 06:21:40;;;;;;;2.05;1.85;;;;;;;;;;5006830;28;20420;-75
2022/09/19 06:24:09;;;;;;;3.28;1.13;;;;;;;;;;5005890;28;20118;-73
2022/09/19 06:26:37;;;;;;;2.25;1.70;;;;;;;;;;5016412;28;20045;-75
2022/09/19 06:29:06;;;;;;;2.17;1.50;;;;;;;;;;5022565;28;20056;-75
2022/09/19 06:31:35;;;;;;;15.20;12.75;;;;;;;;;;5006596;28;20057;-75
2022/09/19 06:34:22;;;;;;;10.85;8.25;;;;;;;;;;5010849;28;20158;-72
2022/09/19 06:37:11;;;;;;;9.02;7.97;;;;;;;;;;5026350;28;20456;-75
2022/09/19 06:39:39;;;;;;;5.90;5.30;;;;;;;;;;4983956;28;20053;-75
2022/09/19 06:42:25;;;;;;;2.65;1.80;;;;;;;;;;5015174;28;20045;-74
2022/09/19 06:45:15;;;;;;;3.95;3.03;;;;;;;;;;5006944;28;20041;-76
2022/09/19 06:48:06;;;;;;;3.22;1.95;;;;;;;;;;5018428;28;21461;-77
2022/09/19 06:51:00;;;;;;;2.63;2.42;;;;;;;;;;4963697;28;20054;-76
2022/09/19 06:53:30;;;;;;;4.60;2.38;;;;;;;;;;5025348;28;20041;-76
2022/09/19 06:56:01;;;;;;;1.92;1.65;;;;;;;;;;5004118;28;20499;-75
2022/09/19 06:58:29;;;;;;;4.00;1.85;;;;;;;;;;4999180;28;20049;-77
2022/09/19 07:00:59;;;;;;;3.05;2.60;;;;;;;;;;5023947;28;20042;-76
2022/09/19 07:03:27;;;;;;;5.25;2.92;;;;;;;;;;5028946;28;20045;-74
2022/09/19 07:05:59;;;;;;;2.72;2.45;;;;;;;;;;5008373;28;20128;-76
2022/09/19 07:08:37;;;;;;;5.95;3.25;;;;;;;;;;5017796;28;20037;-75
2022/09/19 07:11:07;;;;;;;2.65;2.15;;;;;;;;;;5011282;28;20069;-76
2022/09/19 07:13:38;;;;;;;5.20;2.33;;;;;;;;;;5005891;28;20116;-75
2022/09/19 07:16:09;;;;;;;3.88;2.85;;;;;;;;;;5013040;28;20045;-76
2022/09/19 07:18:38;;;;;;;2.72;2.42;;;;;;;;;;5007446;28;20045;-75
2022/09/19 07:21:23;;;;;;;8.93;2.85;;;;;;;;;;5017869;28;20071;-77
2022/09/19 07:23:54;;;;;;;4.32;2.63;;;;;;;;;;5009729;28;20046;-75
2022/09/19 07:26:41;;;;;;;6.07;3.00;;;;;;;;;;5041315;28;20417;-76
2022/09/19 07:29:15;;;;;;;7.05;3.80;;;;;;;;;;5009751;28;20504;-77
2022/09/19 07:31:43;;;;;;;4.22;2.22;;;;;;;;;;4991746;28;20053;-76
2022/09/19 07:34:10;;;;;;;6.68;3.22;;;;;;;;;;5020186;28;20037;-75
2022/09/19 07:36:47;;;;;;;6.68;3.08;;;;;;;;;;5014030;28;20493;-76
2022/09/19 07:39:14;;;;;;;6.70;2.97;;;;;;;;;;5010850;28;20034;-76
2022/09/19 07:42:00;;;;;;;5.57;2.90;;;;;;;;;;4989678;28;20053;-76
2022/09/19 07:44:46;;;;;;;3.10;2.40;;;;;;;;;;4998633;28;20053;-77
2022/09/19 07:47:35;;;;;;;4.45;2.55;;;;;;;;;;5007656;28;20045;-76
2022/09/19 07:50:11;;;;;;;3.55;2.28;;;;;;;;;;5024131;28;20045;-76
2022/09/19 07:52:42;;;;;;;;;;;;;;;;;;5008313;28;20041;-77
2022/09/19 07:55:14;;;;;;;2.28;1.98;;;;;;;;;;5006426;28;19996;-74
2022/09/19 07:57:50;;;;;;;4.82;2.47;;;;;;;;;;4975907;28;20046;-77
2022/09/19 08:00:19;;;;;;;5.53;2.58;;;;;;;;;;5005312;28;20049;-77
2022/09/19 08:02:55;;;;;;;1.85;1.75;;;;;;;;;;4999636;28;20256;-76
2022/09/19 08:05:24;;;;;;;1.20;1.20;;;;;;;;;;5029039;28;20041;-77
2022/09/19 08:07:52;;;;;;;3.58;1.60;;;;;;;;;;4987423;28;20038;-79
2022/09/19 08:10:20;;;;;;;2.38;1.80;;;;;;;;;;5006573;23;20145;-72
2022/09/19 08:12:48;;;;;;;2.30;1.60;;;;;;;;;;4986490;28;20068;-72
2022/09/19 08:15:17;;;;;;;2.28;1.75;;;;;;;;;;4986895;28;20497;-70
2022/09/19 08:17:58;;;;;;;3.17;2.08;;;;;;;;;;5006623;28;20042;-70
2022/09/19 08:20:26;;;;;;;7.60;5.40;;;;;;;;;;4997047;28;20048;-71
2022/09/19 08:23:01;;;;;;;3.65;2.50;;;;;;;;;;4971666;28;20046;-71
2022/09/19 08:25:30;;;;;;;3.88;2.13;;;;;;;;;;4995519;28;20038;-70
2022/09/19 08:27:57;;;;;;;2.08;1.42;;;;;;;;;;4996549;28;20050;-71
2022/09/19 08:30:29;;;;;;;2.97;2.25;;;;;;;;;;5018004;28;20046;-71
2022/09/19 08:33:00;;;;;;;3.53;2.30;;;;;;;;;;5001661;28;20049;-71
2022/09/19 08:35:28;;;;;;;4.63;2.08;;;;;;;;;;4989396;28;20056;-71
2022/09/19 08:37:56;;;;;;;3.00;2.35;;;;;;;;;;4995993;28;20325;-67
2022/09/19 08:40:30;;;;;;;2.60;1.83;;;;;;;;;;5022353;28;20037;-70
2022/09/19 08:43:03;;;;;;;3.67;1.77;;;;;;;;;;5018798;28;20408;-71
2022/09/19 08:45:56;;;;;;;5.43;2.33;;;;;;;;;;4997520;28;20049;-69
2022/09/19 08:48:44;;;;;;;4.53;1.52;;;;;;;;;;4988001;28;20140;-71
2022/09/19 08:51:17;;;;;;;3.20;1.67;;;;;;;;;;5020129;28;20076;-70
2022/09/19 08:53:48;;;;;;;1.70;1.60;;;;;;;;;;4990788;28;20320;-68
2022/09/19 08:56:18;;;;;;;4.82;2.53;;;;;;;;;;4999454;28;20121;-71
2022/09/19 08:58:49;;;;;;;1.58;1.45;;;;;;;;;;5002591;28;20041;-69
2022/09/19 09:01:30;;;;;;;3.83;1.93;;;;;;;;;;4986463;28;20478;-69
2022/09/19 09:04:23;;;;;;;1.90;1.70;;;;;;;;;;5022090;28;20778;-70
2022/09/19 09:06:57;;;;;;;7.88;2.22;;;;;;;;;;5001088;28;20048;-70
2022/09/19 09:09:53;;;;;;;2.20;2.00;;;;;;;;;;4993663;28;20542;-70
2022/09/19 09:12:40;;;;;;;1.60;1.50;;;;;;;;;;4991680;28;20428;-69
2022/09/19 09:15:17;;;;;;;3.53;2.17;;;;;;;;;;5014873;28;20506;-69
2022/09/19 09:17:54;;;;;;;;;;;;;;;;;;4991221;28;20041;-70
2022/09/19 09:20:44;;;;;;;2.70;2.00;;;;;;;;;;5017091;28;19940;-70
2022/09/19 09:23:26;;;;;;;3.35;2.30;;;;;;;;;;4995331;28;20242;-69
2022/09/19 09:26:28;;;;;;;2.25;1.80;;;;;;;;;;4995356;28;20130;-70
2022/09/19 09:29:11;;;;;;;2.67;1.90;;;;;;;;;;4992410;28;20045;-69
2022/09/19 09:31:56;;;;;;;2.25;1.42;;;;;;;;;;4994798;28;20292;-70
2022/09/19 09:34:40;;;;;;;3.63;2.40;;;;;;;;;;5000292;28;20286;-70
2022/09/19 09:37:31;;;;;;;2.95;1.80;;;;;;;;;;4999767;28;20497;-70
2022/09/19 09:40:12;;;;;;;2.00;1.60;;;;;;;;;;4993620;28;20046;-70
2022/09/19 09:42:47;;;;;;;2.78;1.73;;;;;;;;;;5018134;28;20042;-69
2022/09/19 09:45:23;;;;;;;5.05;2.72;;;;;;;;;;4996165;28;20532;-70
2022/09/19 09:48:05;;;;;;;4.22;1.60;;;;;;;;;;5015715;28;20121;-68
2022/09/19 09:50:53;;;;;;;5.28;2.38;;;;;;;;;;5006338;28;20461;-68
2022/09/19 09:53:23;;;;;;;3.78;2.00;;;;;;;;;;5015381;28;20362;-70
2022/09/19 09:56:14;;;;;;;2.58;1.83;;;;;;;;;;4978863;28;20053;-69
2022/09/19 09:58:51;;;;;;;3.22;1.88;;;;;;;;;;5002580;28;20091;-71
2022/09/19 10:04:14;;;;;;;4.47;2.22;;;;;;;;;;4997493;28;20053;-70
2022/09/19 10:06:50;;;;;;;2.90;1.90;;;;;;;;;;5010030;28;20049;-72
2022/09/19 10:09:19;;;;;;;3.05;2.28;;;;;;;;;;5004507;28;20511;-70
2022/09/19 10:11:50;;;;;;;4.22;2.33;;;;;;;;;;5007555;28;20045;-72
2022/09/19 10:14:39;;;;;;;5.18;2.45;;;;;;;;;;4991337;28;20045;-70
2022/09/19 10:17:33;;;;;;;2.55;2.30;;;;;;;;;;5008627;28;20041;-73
2022/09/19 10:20:08;;;;;;;2.45;1.85;;;;;;;;;;5022248;28;20076;-70
2022/09/19 10:22:36;;;;;;;4.45;2.03;;;;;;;;;;4992862;28;20040;-71
2022/09/19 10:25:10;;;;;;;6.40;3.22;;;;;;;;;;5009392;28;20042;-70
2022/09/19 10:27:41;;;;;;;3.30;3.00;;;;;;;;;;5000136;28;20046;-71
2022/09/19 10:30:50;;;;;;;3.47;2.83;;;;;;;;;;5016251;28;20056;-70
2022/09/19 10:33:38;;;;;;;3.25;2.35;;;;;;;;;;5021787;28;20052;-70
2022/09/19 10:36:21;;;;;;;2.42;1.98;;;;;;;;;;5000656;28;20065;-72
2022/09/19 10:38:54;;;;;;;3.15;1.75;;;;;;;;;;5001300;28;20041;-72
2022/09/19 10:41:25;;;;;;;6.95;4.90;;;;;;;;;;5004111;28;20171;-70
2022/09/19 10:43:56;;;;;;;4.80;2.22;;;;;;;;;;4984964;28;20120;-72
2022/09/19 10:46:35;;;;;;;2.63;2.42;;;;;;;;;;5004702;28;20045;-72
2022/09/19 10:49:25;;;;;;;5.50;3.35;;;;;;;;;;5019067;28;20057;-71
2022/09/19 10:51:59;;;;;;;3.90;2.00;;;;;;;;;;5007896;28;20052;-72
2022/09/19 10:54:36;;;;;;;3.40;1.77;;;;;;;;;;5020554;28;20500;-70
2022/09/19 10:57:26;;;;;;;2.30;2.10;;;;;;;;;;5024107;28;20083;-70
2022/09/19 10:59:57;;;;;;;3.88;2.47;;;;;;;;;;4983443;28;20054;-69
2022/09/19 11:02:30;;;;;;;1.98;1.83;;;;;;;;;;4977672;28;20512;-71
2022/09/19 11:05:09;;;;;;;5.90;2.30;;;;;;;;;;4998666;28;20046;-72
2022/09/19 11:07:48;;;;;;;2.45;1.90;;;;;;;;;;5001573;28;20042;-72
2022/09/19 11:10:33;;;;;;;3.95;2.35;;;;;;;;;;4998378;28;20133;-73
2022/09/19 11:13:07;;;;;;;7.43;2.78;;;;;;;;;;5002125;28;20079;-75
2022/09/19 11:15:48;;;;;;;7.05;2.38;;;;;;;;;;4990001;28;20041;-72
2022/09/19 11:18:35;;;;;;;2.97;2.33;;;;;;;;;;5000974;28;20037;-74
2022/09/19 11:21:12;;;;;;;2.40;1.63;;;;;;;;;;5002599;28;20111;-73
2022/09/19 11:23:39;;;;;;;1.73;1.63;;;;;;;;;;4995127;28;20038;-73
2022/09/19 11:26:19;;;;;;;6.25;2.45;;;;;;;;;;4990564;28;20626;-72
2022/09/19 11:28:49;;;;;;;;;;;;;;;;;;4993506;28;20531;-74
2022/09/19 11:31:35;;;;;;;2.42;1.80;;;;;;;;;;5002683;28;20367;-74
2022/09/19 11:34:41;;;;;;;5.53;1.38;;;;;;;;;;5002875;28;20214;-75
2022/09/19 11:37:37;;;;;;;4.03;2.60;;;;;;;;;;4987759;28;20677;-70
2022/09/19 11:40:22;;;;;;;3.10;2.67;;;;;;;;;;4986832;28;20473;-71
2022/09/19 11:42:54;;;;;;;5.97;4.10;;;;;;;;;;5008655;28;20112;-72
2022/09/19 11:45:22;;;;;;;2.35;2.17;;;;;;;;;;5000448;28;20041;-73
2022/09/19 11:48:16;;;;;;;4.68;3.03;;;;;;;;;;4988535;28;20123;-69
2022/09/19 11:51:04;;;;;;;8.38;3.20;;;;;;;;;;5007825;28;20718;-73
2022/09/19 11:53:40;;;;;;;3.33;2.70;;;;;;;;;;4983001;28;20073;-74
2022/09/19 11:56:37;;;;;;;1.77;1.60;;;;;;;;;;4986938;28;20033;-74
2022/09/19 11:59:29;;;;;;;6.85;2.80;;;;;;;;;;5008872;28;20491;-72
2022/09/19 12:01:59;;;;;;;4.20;3.47;;;;;;;;;;4991441;28;20088;-69
2022/09/19 12:04:48;;;;;;;3.80;2.15;;;;;;;;;;4996995;28;20077;-74
2022/09/19 12:07:25;;;;;;;5.07;2.75;;;;;;;;;;4992905;28;20579;-73
2022/09/19 12:10:22;;;;;;;3.80;2.33;;;;;;;;;;4990099;28;20053;-74
2022/09/19 12:13:01;;;;;;;2.92;1.63;;;;;;;;;;5002177;28;20140;-73
2022/09/19 12:15:35;;;;;;;3.78;2.40;;;;;;;;;;4994949;28;20056;-73
2022/09/19 12:18:10;;;;;;;5.03;3.20;;;;;;;;;;4996419;28;20534;-72
2022/09/19 12:20:44;;;;;;;4.72;2.38;;;;;;;;;;4997960;28;20042;-73
2022/09/19 12:26:11;;;;;;;3.25;1.55;;;;;;;;;;4990004;28;20088;-72
2022/09/19 12:28:44;;;;;;;2.20;1.60;;;;;;;;;;5008632;28;20417;-73
2022/09/19 12:31:20;;;;;;;2.33;2.13;;;;;;;;;;5002926;28;20052;-74
2022/09/19 12:33:54;;;;;;;4.35;2.08;;;;;;;;;;4997615;28;20119;-74
2022/09/19 12:36:33;;;;;;;5.40;4.32;;;;;;;;;;4992871;28;20124;-74
2022/09/19 12:39:03;;;;;;;7.13;6.32;;;;;;;;;;4998211;28;20176;-70
2022/09/19 12:41:47;;;;;;;4.07;3.08;;;;;;;;;;5014219;28;20045;-71
2022/09/19 12:44:19;;;;;;;8.27;3.80;;;;;;;;;;4980149;28;20503;-73
2022/09/19 12:46:56;;;;;;;5.38;3.17;;;;;;;;;;4983775;28;20049;-72
2022/09/19 12:49:56;;;;;;;5.20;2.58;;;;;;;;;;4993118;28;20065;-73
2022/09/19 12:52:33;;;;;;;7.18;2.72;;;;;;;;;;5015829;28;20049;-73
2022/09/19 12:55:19;;;;;;;2.72;2.53;;;;;;;;;;5014254;28;20635;-73
2022/09/19 12:58:04;;;;;;;6.35;3.00;;;;;;;;;;4993512;28;20046;-73
2022/09/19 13:00:35;;;;;;;4.70;3.25;;;;;;;;;;5011398;28;20041;-73
2022/09/19 13:03:13;;;;;;;8.23;5.25;;;;;;;;;;5014717;28;20034;-73
2022/09/19 13:05:45;;;;;;;6.03;4.13;;;;;;;;;;5011550;28;20137;-73
2022/09/19 13:08:12;;;;;;;;;;;;;;;;;;5009062;28;20039;-73
2022/09/19 13:10:41;;;;;;;5.80;2.92;;;;;;;;;;5011398;28;19932;-73
2022/09/19 13:13:28;;;;;;;3.58;2.08;;;;;;;;;;5015767;28;20057;-73
2022/09/19 13:16:02;;;;;;;3.65;2.42;;;;;;;;;;4991608;28;20042;-72
2022/09/19 13:23:30;;;;;;;2.28;1.92;;;;;;;;;;5010296;28;20125;-72
2022/09/19 13:24:42;;;;;;;3.42;2.17;;;;;;;;;;4995602;28;20132;-71
2022/09/19 13:27:11;;;;;;;5.43;2.17;;;;;;;;;;4993453;28;20058;-72
2022/09/19 13:29:45;;;;;;;5.47;2.10;;;;;;;;;;5010465;28;20137;-73
2022/09/19 13:32:34;;;;;;;2.80;1.80;;;;;;;;;;5013394;28;20503;-72
2022/09/19 13:35:11;;;;;;;2.53;1.60;;;;;;;;;;4982434;28;20512;-70
2022/09/19 13:37:45;;;;;;;4.07;2.10;;;;;;;;;;5013254;28;20376;-70
2022/09/19 13:40:21;;;;;;;3.13;1.63;;;;;;;;;;5029876;28;20421;-72
2022/09/19 13:42:59;;;;;;;2.90;1.60;;;;;;;;;;5029518;28;20041;-71
2022/09/19 13:45:41;;;;;;;3.67;1.90;;;;;;;;;;5012801;28;20084;-72
2022/09/19 13:48:17;;;;;;;1.88;1.77;;;;;;;;;;5014296;28;20049;-72
2022/09/19 13:50:49;;;;;;;1.90;1.45;;;;;;;;;;5013023;28;20061;-71
2022/09/19 13:53:17;;;;;;;;;;;;;;;;;;4995697;28;20050;-71
2022/09/19 13:55:59;;;;;;;1.42;1.33;;;;;;;;;;5010046;28;20380;-70
2022/09/19 13:58:27;;;;;;;;;;;;;;;;;;4992729;28;20497;-72
2022/09/19 14:01:07;;;;;;;2.08;1.30;;;;;;;;;;5012045;28;19947;-70
2022/09/19 14:03:37;;;;;;;4.30;1.90;;;;;;;;;;5005293;28;20128;-72
2022/09/19 14:06:27;;;;;;;4.80;2.10;;;;;;;;;;5004181;28;20152;-71
2022/09/19 14:09:14;;;;;;;2.45;1.73;;;;;;;;;;5026804;22;20033;-77
2022/09/19 14:12:04;;;;;;;1.42;1.33;;;;;;;;;;5027177;28;20164;-77
2022/09/19 14:14:41;;;;;;;3.97;1.58;;;;;;;;;;4973547;28;20049;-75
2022/09/19 14:17:30;;;;;;;4.63;2.30;;;;;;;;;;4991423;28;20053;-76
2022/09/19 14:20:04;;;;;;;2.25;1.60;;;;;;;;;;4996913;28;20076;-76
2022/09/19 14:22:37;;;;;;;5.47;1.70;;;;;;;;;;4991352;28;20164;-76
2022/09/19 14:25:24;;;;;;;3.13;1.50;;;;;;;;;;4981738;28;20065;-76
2022/09/19 14:27:52;;;;;;;3.10;2.38;;;;;;;;;;5004245;28;20636;-77
2022/09/19 14:30:35;;;;;;;2.78;2.53;;;;;;;;;;5006108;28;20061;-78
2022/09/19 14:33:20;;;;;;;2.05;1.27;;;;;;;;;;5004278;28;20042;-76
2022/09/19 14:35:48;;;;;;;1.42;1.08;;;;;;;;;;5004403;28;20459;-78
2022/09/19 14:38:24;;;;;;;2.85;1.63;;;;;;;;;;4988180;28;20128;-78
2022/09/19 14:41:11;;;;;;;2.97;2.45;;;;;;;;;;4988526;28;20306;-76
2022/09/19 14:44:05;;;;;;;1.65;1.10;;;;;;;;;;5007951;28;20045;-76
2022/09/19 14:46:39;;;;;;;1.35;1.17;;;;;;;;;;4971462;28;20068;-76
2022/09/19 14:49:11;;;;;;;2.85;1.40;;;;;;;;;;4997168;28;20507;-76
2022/09/19 14:51:49;;;;;;;2.90;1.27;;;;;;;;;;4975211;28;20060;-76
2022/09/19 14:54:21;;;;;;;1.52;1.42;;;;;;;;;;5005279;28;20526;-76
2022/09/19 14:57:09;;;;;;;3.38;1.40;;;;;;;;;;5002311;28;20457;-79
2022/09/19 14:59:37;;;;;;;3.13;1.25;;;;;;;;;;4989558;28;20073;-78
2022/09/19 15:02:23;;;;;;;1.63;1.35;;;;;;;;;;4973241;28;20041;-77
2022/09/19 15:05:03;;;;;;;1.60;1.45;;;;;;;;;;4977022;28;20053;-77
2022/09/19 15:07:31;;;;;;;2.03;1.80;;;;;;;;;;5008724;28;20523;-75
2022/09/19 15:09:59;;;;;;;3.03;1.60;;;;;;;;;;5003254;28;20053;-77
2022/09/19 15:12:31;;;;;;;1.95;1.10;;;;;;;;;;5001854;28;20215;-76
2022/09/19 15:14:59;;;;;;;2.13;1.23;;;;;;;;;;4984413;28;20549;-76
2022/09/19 15:17:30;;;;;;;1.50;1.40;;;;;;;;;;5003530;28;20038;-77
2022/09/19 15:20:11;;;;;;;2.47;2.28;;;;;;;;;;5002502;28;20096;-76
2022/09/19 15:22:55;;;;;;;2.53;2.15;;;;;;;;;;5005291;28;20096;-75
2022/09/19 15:25:30;;;;;;;3.58;2.10;;;;;;;;;;5002191;28;20083;-76
2022/09/19 15:28:00;;;;;;;23.25;17.88;;;;;;;;;;4997413;28;20053;-77
2022/09/19 15:30:30;;;;;;;11.27;10.07;;;;;;;;;;5004884;28;20454;-77
2022/09/19 15:33:00;;;;;;;4.47;2.97;;;;;;;;;;5002264;28;20147;-76
2022/09/19 15:35:28;;;;;;;6.18;2.55;;;;;;;;;;5005313;28;20327;-78
2022/09/19 15:38:00;;;;;;;4.15;1.98;;;;;;;;;;4983920;28;20045;-77
2022/09/19 15:40:28;;;;;;;4.65;2.78;;;;;;;;;;5002044;28;20495;-76
2022/09/19 15:42:59;;;;;;;6.55;2.30;;;;;;;;;;5001984;28;20042;-78
2022/09/19 15:45:30;;;;;;;3.63;2.45;;;;;;;;;;5002750;28;20054;-77
2022/09/19 15:48:05;;;;;;;22.50;18.55;;;;;;;;;;5000032;28;20042;-77
2022/09/19 15:50:37;;;;;;;14.48;11.32;;;;;;;;;;4986633;28;20475;-77
2022/09/19 15:53:05;;;;;;;10.38;5.07;;;;;;;;;;5003112;28;20049;-77